Flight Track Log - Related Links

Times and Time Zones

All times are in EDT time to prevent confusion due to time zone crossing. See the GLA154 flight status page for this flight to view local times or setup timezone preferences in your user account.

Time Position Orientation Groundspeed Altitude Reporting Facility
EDT Latitude Longitude Course Direction KTS MPH feet Rate Location/Type
Fri 10:18:32 AM 35.1414 -114.0569 219° Southwest 199 229 8,800  Level Los Angeles Center
Fri 10:19:33 AM 35.1014 -114.1097 227° Southwest 208 239 10,500 1,463 Climbing Los Angeles Center
Fri 10:20:35 AM 35.0692 -114.1775 240° Southwest 241 277 11,800 1,258 Climbing Los Angeles Center
Fri 10:21:37 AM 35.0594 -114.2533 261° West 231 266 13,100 1,306 Climbing Los Angeles Center
Fri 10:22:39 AM 35.0522 -114.3322 264° West 233 268 14,500 1,561 Climbing Los Angeles Center
Fri 10:23:40 AM 35.0439 -114.4119 263° West 235 270 16,300 1,659 Climbing Los Angeles Center
Fri 10:24:42 AM 35.0306 -114.5056 260° West 234 269 17,900 1,548 Climbing Los Angeles Center
Fri 10:25:44 AM 35.0219 -114.5808 262° West 228 262 19,500 1,016 Climbing Los Angeles Center
Fri 10:26:46 AM 35.0128 -114.6569 262° West 226 260 20,000 290 Climbing Los Angeles Center
Fri 10:27:48 AM 35.0081 -114.7419 266° West 243 280 20,100  Climbing Los Angeles Center
Fri 10:28:49 AM 35.0119 -114.8261 273° West 249 287 20,000  Descending Los Angeles Center
Fri 10:29:51 AM 35.0064 -114.9125 266° West 254 292 20,100  Climbing Los Angeles Center
Fri 10:31:05 AM 34.9969 -115.0000 263° West 258 297 20,000  Descending Los Angeles Center
Fri 10:32:07 AM 34.9881 -115.1247 265° West 264 304 20,100  Climbing Los Angeles Center
Fri 10:33:09 AM 34.9806 -115.2111 264° West 257 296 20,000  Descending Los Angeles Center
Fri 10:34:11 AM 34.9708 -115.2958 262° West 263 303 20,100  Climbing Los Angeles Center
Fri 10:35:12 AM 34.9622 -115.3842 263° West 262 302 20,000 -49 Descending Los Angeles Center
Fri 10:36:14 AM 34.9511 -115.4719 261° West 263 303 20,000  Level Los Angeles Center
Fri 10:37:16 AM 34.9369 -115.5603 259° West 265 305 20,000 48 Level Los Angeles Center
Fri 10:38:18 AM 34.9247 -115.6486 260° West 264 304 20,100  Climbing Los Angeles Center
Fri 10:39:19 AM 34.9103 -115.7547 261° West 264 304 20,000  Descending Los Angeles Center
Fri 10:40:21 AM 34.8956 -115.8422 258° West 265 305 20,100  Climbing Los Angeles Center
Fri 10:41:23 AM 34.8825 -115.9303 260° West 264 304 20,000 -48 Descending Los Angeles Center
Fri 10:42:25 AM 34.8672 -116.0183 258° West 266 306 20,000  Level Los Angeles Center
Fri 10:43:26 AM 34.8536 -116.1075 259° West 267 307 20,000 49 Level Los Angeles Center
Fri 10:44:28 AM 34.8417 -116.1969 261° West 268 308 20,100  Climbing Los Angeles Center
Fri 10:45:30 AM 34.8300 -116.2864 261° West 268 308 20,000  Descending Los Angeles Center
Fri 10:46:44 AM 34.8128 -116.3925 259° West 268 308 20,100 44 Climbing Los Angeles Center
Fri 10:47:46 AM 34.7822 -116.4983 251° West 272 313 20,100 -48 Level Los Angeles Center
Fri 10:48:48 AM 34.7653 -116.5869 257° West 271 312 20,000 -98 Descending Los Angeles Center
Fri 10:49:49 AM 34.7561 -116.6786 263° West 271 312 19,900  Descending Los Angeles Center
Fri 10:50:51 AM 34.7442 -116.7703 261° West 274 315 20,000 97 Climbing Los Angeles Center
Fri 10:51:53 AM 34.7306 -116.8603 260° West 271 312 20,100  Climbing Los Angeles Center
Fri 10:52:55 AM 34.7156 -116.9517 259° West 274 315 20,000 -341 Descending Los Angeles Center
Fri 10:53:56 AM 34.6983 -117.0619 259° West 276 318 19,400 -800 Descending Los Angeles Center
Fri 10:55:10 AM 34.6839 -117.1578 260° West 284 327 18,200 -1,147 Descending Los Angeles Center
Fri 10:56:12 AM 34.6822 -117.2700 269° West 279 321 16,800 -1,258 Descending Los Angeles Center
Fri 10:57:14 AM 34.6850 -117.3625 272° West 275 316 15,600 -976 Descending Los Angeles Center
Fri 10:58:15 AM 34.6886 -117.4361 273° West 273 314 14,800 -968 Descending Los Angeles Center
Fri 10:59:18 AM 34.6908 -117.5542 271° West 285 328 13,600 -1,065 Descending Los Angeles Center
Fri 11:00:19 AM 34.6783 -117.6542 261° West 295 339 12,600 -976 Descending Los Angeles Center
Fri 11:01:21 AM 34.6597 -117.7531 257° West 298 343 11,600 -1,059 Descending Los Angeles Center
Fri 11:02:35 AM 34.6400 -117.8694 258° West 293 337 10,200 -1,103 Descending Los Angeles Center
Fri 11:03:37 AM 34.6378 -117.9889 269° West 293 337 9,100 -823 Descending Los Angeles Center
Fri 11:04:39 AM 34.6247 -118.0842 261° West 290 334 8,500 -532 Descending Los Angeles Center
Fri 11:05:41 AM 34.5739 -118.1667 233° Southwest 279 321 8,000 -194 Descending Los Angeles Center
Fri 11:06:43 AM 34.5267 -118.2367 231° Southwest 268 308 8,100  Climbing Los Angeles Center
Fri 11:07:45 AM 34.4750 -118.2994 225° Southwest 266 306 8,000 -242 Descending Los Angeles Center
Fri 11:08:47 AM 34.4025 -118.3208 194° South 266 306 7,600 -532 Descending Los Angeles Center
Fri 11:09:49 AM 34.3314 -118.3406 193° South 261 300 6,900 -339 Descending Los Angeles Center
Fri 11:10:51 AM 34.2686 -118.3297 172° South 250 288 6,900 -435 Level Los Angeles Center
Fri 11:11:53 AM 34.1883 -118.2883 157° South 257 296 6,000 -387 Descending Los Angeles Center
Fri 11:12:55 AM 34.1269 -118.2550 156° South 251 289 6,100 -194 Climbing Los Angeles Center
Fri 11:13:57 AM 34.0803 -118.2031 137° Southeast 241 277 5,600 -871 Descending Los Angeles Center
Fri 11:14:59 AM 34.0311 -118.1519 139° Southeast 237 273 4,300 -927 Descending Los Angeles Center
Fri 11:16:00 AM 33.9747 -118.1575 185° South 206 237 3,700 -585 Descending Los Angeles Center
Fri 11:17:02 AM 33.9539 -118.2089 244° Southwest 179 206 3,100 -871 Descending Los Angeles Center
Fri 11:18:04 AM 33.9489 -118.2814 265° West 181 208 1,900 -968 Descending Los Angeles Center
Fri 11:19:06 AM 33.9425 -118.3369 262° West 175 201 1,100 -871 Descending Los Angeles Center
Fri 11:20:08 AM 33.9386 -118.3808 264° West 149 171 100 -968 Descending Los Angeles Center
Fri 11:22:00 AM 33.9333 -118.4000 264° West  Level FlightAware Approximate

Login

Don't have an account? Register now (free) for customized features, flight alerts, and more!